• Join FlightAware (Why Join?)
  • Login
  • US Flag 
08:09AM EDT


 

Airport Tracker/Info


-or-


 

Live Flight TrackerFlight Track Log ✈ SWA4092 ✈ 14-Dec-2013 ✈ KBWI - KALB

Flight Track Log - Related Links

Times and Time Zones

All times are in EST time to prevent confusion due to time zone crossing. See the SWA4092 flight status page for this flight to view local times or setup timezone preferences in your user account.

Time Position Orientation Groundspeed Altitude Reporting Facility
EST Latitude Longitude Course Direction KTS MPH feet Rate Location/Type
02:41PM 39.1333 -76.6333 90° East 188 216 3,000  Level Potomac TRACON
02:43PM 39.1122 -76.4931 101° East 197 227 6,900 2,160 Climbing Washington Center
02:44PM 39.1297 -76.3756 79° East 279 321 9,800 2,700 Climbing Washington Center
02:45PM 39.1472 -76.2472 80° East 316 364 12,400 2,820 Climbing Washington Center
02:46PM 39.1500 -76.3264 90° East  Level FlightAware Approximate
02:46PM 39.1686 -76.1031 79° East 365 420 15,400  Level Washington Center
02:47PM 39.1836 -75.9583 82° East 384 442 17,400 2,040 Climbing Washington Center
02:48PM 39.2319 -75.8275 64° Northeast 399 459 19,600 1,980 Climbing Washington Center
02:49PM 39.3175 -75.7231 43° Northeast 394 453 21,400 1,800 Climbing Washington Center
02:50PM 39.4053 -75.6078 45° Northeast 421 484 23,300 1,740 Climbing Washington Center
02:51PM 39.4947 -75.4894 46° Northeast 441 507 24,900 1,560 Climbing Washington Center
02:52PM 39.5842 -75.3733 45° Northeast 446 513 26,400 1,380 Climbing Washington Center
02:53PM 39.6756 -75.2492 46° Northeast 458 527 27,700 1,140 Climbing Washington Center
02:53PM 39.7114 -75.1981 48° Northeast 487 560 28,200 780 Climbing New York Center
02:54PM 39.8108 -75.0567 47° Northeast 501 577 29,000 360 Climbing New York Center
02:55PM 39.9108 -74.9267 45° Northeast 510 587 29,000  Level New York Center
02:56PM 40.0200 -74.7964 42° Northeast 517 595 29,000  Level New York Center
02:57PM 40.1492 -74.6422 42° Northeast 514 592 29,000  Level New York Center
02:58PM 40.2503 -74.5203 43° Northeast 507 583 29,000  Level New York Center
02:59PM 40.3553 -74.3933 43° Northeast 507 583 29,000  Level New York Center
03:00PM 40.4575 -74.2694 43° Northeast 500 575 29,000  Level New York Center
03:01PM 40.5611 -74.1458 42° Northeast 500 575 29,000 -1,320 Level New York Center
03:02PM 40.6614 -74.0194 44° Northeast 500 575 26,300 -2,220 Descending New York Center
03:03PM 40.7586 -73.8986 43° Northeast 485 558 24,500 -1,140 Descending New York Center
03:04PM 40.8533 -73.7878 41° Northeast 463 533 24,000 -780 Descending New York Center
03:05PM 40.9819 -73.6706 35° Northeast 466 536 23,000 -540 Descending New York Center
03:06PM 41.0933 -73.6136 21° North 433 498 23,000 -240 Level New York Center
03:07PM 41.1569 -73.5794 22° Northeast 431 496 22,600 -780 Descending Boston Center
03:08PM 41.2683 -73.5186 22° Northeast 427 491 21,700 -1,320 Descending Boston Center
03:09PM 41.3969 -73.4494 22° Northeast 417 480 20,000 -1,500 Descending Boston Center
03:10PM 41.5000 -73.3947 22° Northeast 401 461 18,600 -1,200 Descending Boston Center
03:11PM 41.5997 -73.3419 22° Northeast 389 448 17,600 -1,740 Descending Boston Center
03:12PM 41.6953 -73.3500 356° North 347 399 15,200 -1,920 Descending Boston Center
03:13PM 41.7867 -73.3900 342° North 345 397 13,800 -1,920 Descending Boston Center
03:14PM 41.8775 -73.4292 342° North 324 373 11,400 -1,200 Descending Boston Center
03:16PM 41.9908 -73.4775 342° North 325 374 11,000 -300 Descending Boston Center
03:16PM 42.0186 -73.4894 342° North 330 380 11,000 -180 Level Boston Center
03:16PM 42.0522 -73.5036 343° North 334 384 10,900  Descending Boston Center
03:17PM 42.1183 -73.5308 343° North 353 406 11,000 60 Climbing Boston Center
03:17PM 42.1403 -73.5383 346° North 350 403 11,000 -120 Level Boston Center
03:18PM 42.2094 -73.5725 340° North 344 396 10,900 -120 Descending Boston Center
03:18PM 42.2272 -73.5839 335° Northwest 339 390 10,900 -1,740 Level Boston Center
03:19PM 42.2744 -73.6172 332° Northwest 278 320 9,400 -2,100 Descending Boston Center
03:19PM 42.2961 -73.6303 336° Northwest 291 335 8,800 -1,920 Descending Boston Center
03:20PM 42.3458 -73.6611 335° Northwest 271 312 7,500 -2,400 Descending Boston Center
03:20PM 42.3786 -73.6806 336° Northwest 280 322 6,400 -2,280 Descending Boston Center
03:21PM 42.4144 -73.7072 331° Northwest 276 318 5,200 -1,920 Descending Boston Center
03:21PM 42.4483 -73.7264 337° Northwest 280 322 4,500 -1,380 Descending Boston Center
03:22PM 42.4839 -73.7508 333° Northwest 278 320 3,800 -1,140 Descending Boston Center
03:22PM 42.5156 -73.7700 336° Northwest 270 311 3,400 -960 Descending Boston Center
03:23PM 42.5511 -73.7939 334° Northwest 237 273 2,900 -780 Descending Boston Center
03:23PM 42.5739 -73.7967 355° North 223 257 2,600 -300 Descending Boston Center
03:24PM 42.6056 -73.8006 355° North 181 208 2,600  Level Boston Center
03:24PM 42.6264 -73.7994 North 187 215 2,600 -480 Level Boston Center
03:25PM 42.6547 -73.8025 355° North 173 199 2,100 -900 Descending Boston Center
03:25PM 42.6753 -73.8019 North 179 206 1,700 -840 Descending Boston Center
03:26PM 42.6956 -73.8019 360° North 141 162 1,300 -840 Descending Boston Center
03:26PM 42.7128 -73.8039 355° North 129 148 900 -840 Descending Boston Center
03:27PM 42.7294 -73.8044 359° North 112 129 500 -600 Descending Boston Center
03:27PM 42.7403 -73.8064 352° North 120 138 300 -540 Descending Boston Center
03:29PM 42.7491 -73.8020 20° North  Level Estimated
03:36PM 42.7491 -73.8020 304° West  Level Estimated
03:37PM 42.7491 -73.8020 304° West  Level Estimated